sensor_id;sensor_type;location;lat;lon;timestamp;P1;durP1;ratioP1;P2;durP2;ratioP2
55633;SDS011;41504;53.162;6.788;2023-02-13T00:00:46;17.92;;;10.95;;
55633;SDS011;41504;53.162;6.788;2023-02-13T00:03:12;17.98;;;10.70;;
55633;SDS011;41504;53.162;6.788;2023-02-13T00:05:38;17.00;;;10.32;;
55633;SDS011;41504;53.162;6.788;2023-02-13T00:08:04;17.05;;;9.88;;
55633;SDS011;41504;53.162;6.788;2023-02-13T00:10:29;17.45;;;10.13;;
55633;SDS011;41504;53.162;6.788;2023-02-13T00:12:55;15.55;;;9.77;;
55633;SDS011;41504;53.162;6.788;2023-02-13T00:15:21;16.95;;;10.00;;
55633;SDS011;41504;53.162;6.788;2023-02-13T00:17:47;18.48;;;10.80;;
55633;SDS011;41504;53.162;6.788;2023-02-13T00:20:12;16.40;;;10.55;;
55633;SDS011;41504;53.162;6.788;2023-02-13T00:22:38;17.25;;;10.25;;
55633;SDS011;41504;53.162;6.788;2023-02-13T00:25:04;20.52;;;10.48;;
55633;SDS011;41504;53.162;6.788;2023-02-13T00:27:31;17.85;;;10.35;;
55633;SDS011;41504;53.162;6.788;2023-02-13T00:29:57;17.98;;;11.30;;
55633;SDS011;41504;53.162;6.788;2023-02-13T00:32:22;17.08;;;10.43;;
55633;SDS011;41504;53.162;6.788;2023-02-13T00:34:48;17.17;;;10.63;;
55633;SDS011;41504;53.162;6.788;2023-02-13T00:37:14;17.10;;;10.82;;
55633;SDS011;41504;53.162;6.788;2023-02-13T00:39:40;18.40;;;11.02;;
55633;SDS011;41504;53.162;6.788;2023-02-13T00:42:06;18.83;;;10.40;;
55633;SDS011;41504;53.162;6.788;2023-02-13T00:44:32;17.05;;;10.68;;
55633;SDS011;41504;53.162;6.788;2023-02-13T00:46:58;17.92;;;10.43;;
55633;SDS011;41504;53.162;6.788;2023-02-13T00:49:23;18.23;;;11.35;;
55633;SDS011;41504;53.162;6.788;2023-02-13T00:51:49;17.45;;;10.65;;
55633;SDS011;41504;53.162;6.788;2023-02-13T00:54:15;17.15;;;10.43;;
55633;SDS011;41504;53.162;6.788;2023-02-13T00:56:40;18.85;;;10.68;;
55633;SDS011;41504;53.162;6.788;2023-02-13T00:59:06;18.75;;;10.93;;
55633;SDS011;41504;53.162;6.788;2023-02-13T01:01:32;17.65;;;10.32;;
55633;SDS011;41504;53.162;6.788;2023-02-13T01:03:58;18.65;;;10.27;;
55633;SDS011;41504;53.162;6.788;2023-02-13T01:06:23;17.50;;;10.38;;
55633;SDS011;41504;53.162;6.788;2023-02-13T01:08:49;19.35;;;11.75;;
55633;SDS011;41504;53.162;6.788;2023-02-13T01:11:15;20.02;;;10.73;;
55633;SDS011;41504;53.162;6.788;2023-02-13T01:13:42;18.83;;;10.65;;
55633;SDS011;41504;53.162;6.788;2023-02-13T01:16:09;20.00;;;11.27;;
55633;SDS011;41504;53.162;6.788;2023-02-13T01:18:35;18.95;;;11.32;;
55633;SDS011;41504;53.162;6.788;2023-02-13T01:21:02;20.63;;;11.60;;
55633;SDS011;41504;53.162;6.788;2023-02-13T01:23:31;20.98;;;12.02;;
55633;SDS011;41504;53.162;6.788;2023-02-13T01:25:58;22.58;;;12.77;;
55633;SDS011;41504;53.162;6.788;2023-02-13T01:28:24;22.30;;;12.02;;
55633;SDS011;41504;53.162;6.788;2023-02-13T01:30:54;19.50;;;11.75;;
55633;SDS011;41504;53.162;6.788;2023-02-13T01:33:24;22.75;;;12.80;;
55633;SDS011;41504;53.162;6.788;2023-02-13T01:35:51;21.63;;;12.55;;
55633;SDS011;41504;53.162;6.788;2023-02-13T01:38:17;24.40;;;13.40;;
55633;SDS011;41504;53.162;6.788;2023-02-13T01:40:44;24.08;;;13.80;;
55633;SDS011;41504;53.162;6.788;2023-02-13T01:43:17;24.63;;;14.18;;
55633;SDS011;41504;53.162;6.788;2023-02-13T01:45:44;25.13;;;13.55;;
55633;SDS011;41504;53.162;6.788;2023-02-13T01:48:20;27.33;;;13.98;;
55633;SDS011;41504;53.162;6.788;2023-02-13T01:50:54;23.98;;;13.73;;
55633;SDS011;41504;53.162;6.788;2023-02-13T01:53:25;24.40;;;13.43;;
55633;SDS011;41504;53.162;6.788;2023-02-13T01:55:56;27.30;;;13.52;;
55633;SDS011;41504;53.162;6.788;2023-02-13T01:58:36;22.63;;;12.55;;
55633;SDS011;41504;53.162;6.788;2023-02-13T02:01:04;24.33;;;13.40;;
55633;SDS011;41504;53.162;6.788;2023-02-13T02:03:35;24.25;;;13.68;;
55633;SDS011;41504;53.162;6.788;2023-02-13T02:06:06;24.50;;;13.68;;
55633;SDS011;41504;53.162;6.788;2023-02-13T02:08:42;25.27;;;13.13;;
55633;SDS011;41504;53.162;6.788;2023-02-13T02:11:12;24.23;;;12.90;;
55633;SDS011;41504;53.162;6.788;2023-02-13T02:13:42;26.13;;;14.13;;
55633;SDS011;41504;53.162;6.788;2023-02-13T02:16:08;26.63;;;14.20;;
55633;SDS011;41504;53.162;6.788;2023-02-13T02:18:34;24.67;;;13.38;;
55633;SDS011;41504;53.162;6.788;2023-02-13T02:23:59;24.08;;;13.10;;
55633;SDS011;41504;53.162;6.788;2023-02-13T02:29:50;28.15;;;14.90;;
55633;SDS011;41504;53.162;6.788;2023-02-13T02:35:04;27.67;;;14.43;;
55633;SDS011;41504;53.162;6.788;2023-02-13T02:40:43;27.10;;;13.60;;
55633;SDS011;41504;53.162;6.788;2023-02-13T02:43:25;23.67;;;12.80;;
55633;SDS011;41504;53.162;6.788;2023-02-13T02:46:08;25.60;;;13.68;;
55633;SDS011;41504;53.162;6.788;2023-02-13T02:48:54;26.92;;;13.60;;
55633;SDS011;41504;53.162;6.788;2023-02-13T02:54:31;24.77;;;14.15;;
55633;SDS011;41504;53.162;6.788;2023-02-13T02:57:24;23.95;;;13.23;;
55633;SDS011;41504;53.162;6.788;2023-02-13T03:00:15;25.05;;;13.68;;
55633;SDS011;41504;53.162;6.788;2023-02-13T03:03:08;25.20;;;13.52;;
55633;SDS011;41504;53.162;6.788;2023-02-13T03:06:05;24.08;;;13.40;;
55633;SDS011;41504;53.162;6.788;2023-02-13T03:08:40;26.85;;;13.32;;
55633;SDS011;41504;53.162;6.788;2023-02-13T03:11:26;23.67;;;12.95;;
55633;SDS011;41504;53.162;6.788;2023-02-13T03:14:12;24.88;;;13.55;;
55633;SDS011;41504;53.162;6.788;2023-02-13T03:16:43;25.05;;;13.02;;
55633;SDS011;41504;53.162;6.788;2023-02-13T03:19:46;24.83;;;13.75;;
55633;SDS011;41504;53.162;6.788;2023-02-13T03:22:44;26.48;;;13.13;;
55633;SDS011;41504;53.162;6.788;2023-02-13T03:25:44;25.15;;;13.45;;
55633;SDS011;41504;53.162;6.788;2023-02-13T03:31:56;25.83;;;13.63;;
55633;SDS011;41504;53.162;6.788;2023-02-13T03:34:33;26.20;;;13.90;;
55633;SDS011;41504;53.162;6.788;2023-02-13T03:37:33;25.63;;;14.05;;
55633;SDS011;41504;53.162;6.788;2023-02-13T03:40:21;24.25;;;13.63;;
55633;SDS011;41504;53.162;6.788;2023-02-13T03:42:55;22.00;;;12.77;;
55633;SDS011;41504;53.162;6.788;2023-02-13T03:45:36;25.17;;;13.88;;
55633;SDS011;41504;53.162;6.788;2023-02-13T03:48:19;23.20;;;12.47;;
55633;SDS011;41504;53.162;6.788;2023-02-13T03:51:09;24.35;;;13.20;;
55633;SDS011;41504;53.162;6.788;2023-02-13T03:53:38;25.67;;;13.10;;
55633;SDS011;41504;53.162;6.788;2023-02-13T03:56:07;22.80;;;12.95;;
55633;SDS011;41504;53.162;6.788;2023-02-13T03:58:55;25.85;;;13.68;;
55633;SDS011;41504;53.162;6.788;2023-02-13T04:01:37;24.48;;;13.23;;
55633;SDS011;41504;53.162;6.788;2023-02-13T04:04:08;25.13;;;13.32;;
55633;SDS011;41504;53.162;6.788;2023-02-13T04:06:40;25.05;;;14.07;;
55633;SDS011;41504;53.162;6.788;2023-02-13T04:09:08;25.17;;;13.38;;
55633;SDS011;41504;53.162;6.788;2023-02-13T04:14:19;24.40;;;12.23;;
55633;SDS011;41504;53.162;6.788;2023-02-13T04:16:57;24.55;;;12.63;;
55633;SDS011;41504;53.162;6.788;2023-02-13T04:19:28;25.17;;;13.48;;
55633;SDS011;41504;53.162;6.788;2023-02-13T04:21:56;25.88;;;12.60;;
55633;SDS011;41504;53.162;6.788;2023-02-13T04:24:24;23.73;;;12.68;;
55633;SDS011;41504;53.162;6.788;2023-02-13T04:26:50;24.83;;;13.48;;
55633;SDS011;41504;53.162;6.788;2023-02-13T04:29:17;26.55;;;13.90;;
55633;SDS011;41504;53.162;6.788;2023-02-13T04:31:44;27.52;;;13.85;;
55633;SDS011;41504;53.162;6.788;2023-02-13T04:34:10;24.08;;;12.77;;
55633;SDS011;41504;53.162;6.788;2023-02-13T04:36:35;24.63;;;13.10;;
55633;SDS011;41504;53.162;6.788;2023-02-13T04:39:01;23.88;;;13.13;;
55633;SDS011;41504;53.162;6.788;2023-02-13T04:41:27;26.50;;;12.65;;
55633;SDS011;41504;53.162;6.788;2023-02-13T04:43:52;25.35;;;12.80;;
55633;SDS011;41504;53.162;6.788;2023-02-13T04:46:18;24.42;;;13.25;;
55633;SDS011;41504;53.162;6.788;2023-02-13T04:48:44;22.13;;;12.48;;
55633;SDS011;41504;53.162;6.788;2023-02-13T04:51:09;24.23;;;12.65;;
55633;SDS011;41504;53.162;6.788;2023-02-13T04:53:35;25.92;;;14.00;;
55633;SDS011;41504;53.162;6.788;2023-02-13T04:56:01;24.65;;;13.27;;
55633;SDS011;41504;53.162;6.788;2023-02-13T04:58:26;24.77;;;13.32;;
55633;SDS011;41504;53.162;6.788;2023-02-13T05:00:52;22.73;;;12.27;;
55633;SDS011;41504;53.162;6.788;2023-02-13T05:03:18;26.13;;;13.63;;
55633;SDS011;41504;53.162;6.788;2023-02-13T05:05:43;24.85;;;13.55;;
55633;SDS011;41504;53.162;6.788;2023-02-13T05:08:10;27.15;;;12.93;;
55633;SDS011;41504;53.162;6.788;2023-02-13T05:10:35;25.10;;;13.32;;
55633;SDS011;41504;53.162;6.788;2023-02-13T05:13:02;25.50;;;13.80;;
55633;SDS011;41504;53.162;6.788;2023-02-13T05:15:27;25.55;;;13.23;;
55633;SDS011;41504;53.162;6.788;2023-02-13T05:17:53;26.35;;;15.75;;
55633;SDS011;41504;53.162;6.788;2023-02-13T05:20:19;28.52;;;19.48;;
55633;SDS011;41504;53.162;6.788;2023-02-13T05:22:48;27.90;;;14.23;;
55633;SDS011;41504;53.162;6.788;2023-02-13T05:25:34;25.33;;;13.30;;
55633;SDS011;41504;53.162;6.788;2023-02-13T05:28:01;24.60;;;13.35;;
55633;SDS011;41504;53.162;6.788;2023-02-13T05:30:27;23.88;;;12.15;;
55633;SDS011;41504;53.162;6.788;2023-02-13T05:32:53;24.13;;;12.45;;
55633;SDS011;41504;53.162;6.788;2023-02-13T05:35:22;23.25;;;12.35;;
55633;SDS011;41504;53.162;6.788;2023-02-13T05:37:49;24.88;;;12.30;;
55633;SDS011;41504;53.162;6.788;2023-02-13T05:40:15;24.27;;;12.75;;
55633;SDS011;41504;53.162;6.788;2023-02-13T05:42:41;26.80;;;13.52;;
55633;SDS011;41504;53.162;6.788;2023-02-13T05:45:07;24.90;;;13.10;;
55633;SDS011;41504;53.162;6.788;2023-02-13T05:47:34;23.67;;;13.82;;
55633;SDS011;41504;53.162;6.788;2023-02-13T05:50:00;25.02;;;12.75;;
55633;SDS011;41504;53.162;6.788;2023-02-13T05:52:25;26.08;;;13.27;;
55633;SDS011;41504;53.162;6.788;2023-02-13T05:54:51;24.40;;;12.77;;
55633;SDS011;41504;53.162;6.788;2023-02-13T05:57:17;27.48;;;14.05;;
55633;SDS011;41504;53.162;6.788;2023-02-13T05:59:43;27.15;;;14.07;;
55633;SDS011;41504;53.162;6.788;2023-02-13T06:02:09;23.90;;;12.55;;
55633;SDS011;41504;53.162;6.788;2023-02-13T06:04:34;27.42;;;14.27;;
55633;SDS011;41504;53.162;6.788;2023-02-13T06:07:00;24.52;;;13.50;;
55633;SDS011;41504;53.162;6.788;2023-02-13T06:09:26;25.38;;;13.55;;
55633;SDS011;41504;53.162;6.788;2023-02-13T06:11:51;28.23;;;14.30;;
55633;SDS011;41504;53.162;6.788;2023-02-13T06:14:17;25.65;;;13.95;;
55633;SDS011;41504;53.162;6.788;2023-02-13T06:16:43;23.27;;;13.88;;
55633;SDS011;41504;53.162;6.788;2023-02-13T06:19:08;26.50;;;14.55;;
55633;SDS011;41504;53.162;6.788;2023-02-13T06:21:34;26.88;;;14.35;;
55633;SDS011;41504;53.162;6.788;2023-02-13T06:24:05;26.05;;;13.40;;
55633;SDS011;41504;53.162;6.788;2023-02-13T06:26:32;26.90;;;14.40;;
55633;SDS011;41504;53.162;6.788;2023-02-13T06:28:58;27.33;;;15.70;;
55633;SDS011;41504;53.162;6.788;2023-02-13T06:31:24;30.90;;;15.85;;
55633;SDS011;41504;53.162;6.788;2023-02-13T06:33:50;25.30;;;15.13;;
55633;SDS011;41504;53.162;6.788;2023-02-13T06:36:16;26.25;;;15.02;;
55633;SDS011;41504;53.162;6.788;2023-02-13T06:38:42;25.73;;;14.50;;
55633;SDS011;41504;53.162;6.788;2023-02-13T06:41:07;24.92;;;14.57;;
55633;SDS011;41504;53.162;6.788;2023-02-13T06:43:34;26.27;;;14.50;;
55633;SDS011;41504;53.162;6.788;2023-02-13T06:46:03;25.23;;;14.32;;
55633;SDS011;41504;53.162;6.788;2023-02-13T06:48:32;27.50;;;14.77;;
55633;SDS011;41504;53.162;6.788;2023-02-13T06:51:01;26.40;;;14.30;;
55633;SDS011;41504;53.162;6.788;2023-02-13T06:53:27;25.60;;;14.40;;
55633;SDS011;41504;53.162;6.788;2023-02-13T06:55:54;23.08;;;13.80;;
55633;SDS011;41504;53.162;6.788;2023-02-13T06:58:21;26.65;;;15.10;;
55633;SDS011;41504;53.162;6.788;2023-02-13T07:00:48;27.45;;;14.57;;
55633;SDS011;41504;53.162;6.788;2023-02-13T07:03:14;26.70;;;14.63;;
55633;SDS011;41504;53.162;6.788;2023-02-13T07:05:40;26.55;;;15.32;;
55633;SDS011;41504;53.162;6.788;2023-02-13T07:08:08;23.75;;;14.43;;
55633;SDS011;41504;53.162;6.788;2023-02-13T07:10:37;24.85;;;14.88;;
55633;SDS011;41504;53.162;6.788;2023-02-13T07:13:04;24.48;;;14.43;;
55633;SDS011;41504;53.162;6.788;2023-02-13T07:15:31;27.08;;;14.82;;
55633;SDS011;41504;53.162;6.788;2023-02-13T07:17:58;24.65;;;14.27;;
55633;SDS011;41504;53.162;6.788;2023-02-13T07:20:24;23.50;;;14.75;;
55633;SDS011;41504;53.162;6.788;2023-02-13T07:22:50;23.15;;;13.85;;
55633;SDS011;41504;53.162;6.788;2023-02-13T07:25:19;23.02;;;14.23;;
55633;SDS011;41504;53.162;6.788;2023-02-13T07:27:45;25.45;;;14.90;;
55633;SDS011;41504;53.162;6.788;2023-02-13T07:30:10;25.80;;;14.95;;
55633;SDS011;41504;53.162;6.788;2023-02-13T07:32:36;25.38;;;14.40;;
55633;SDS011;41504;53.162;6.788;2023-02-13T07:35:02;24.80;;;14.85;;
55633;SDS011;41504;53.162;6.788;2023-02-13T07:37:29;25.65;;;15.18;;
55633;SDS011;41504;53.162;6.788;2023-02-13T07:39:55;28.67;;;15.20;;
55633;SDS011;41504;53.162;6.788;2023-02-13T07:42:21;24.83;;;14.93;;
55633;SDS011;41504;53.162;6.788;2023-02-13T07:44:47;26.67;;;15.65;;
55633;SDS011;41504;53.162;6.788;2023-02-13T07:47:13;27.50;;;15.02;;
55633;SDS011;41504;53.162;6.788;2023-02-13T07:49:38;26.45;;;15.70;;
55633;SDS011;41504;53.162;6.788;2023-02-13T07:52:04;28.85;;;15.93;;
55633;SDS011;41504;53.162;6.788;2023-02-13T07:54:31;26.98;;;15.65;;
55633;SDS011;41504;53.162;6.788;2023-02-13T07:56:57;25.45;;;15.60;;
55633;SDS011;41504;53.162;6.788;2023-02-13T07:59:23;27.13;;;15.65;;
55633;SDS011;41504;53.162;6.788;2023-02-13T08:01:49;27.10;;;15.63;;
55633;SDS011;41504;53.162;6.788;2023-02-13T08:04:15;27.13;;;15.38;;
55633;SDS011;41504;53.162;6.788;2023-02-13T08:06:41;29.80;;;15.90;;
55633;SDS011;41504;53.162;6.788;2023-02-13T08:09:07;24.33;;;15.40;;
55633;SDS011;41504;53.162;6.788;2023-02-13T08:12:04;25.83;;;15.55;;
55633;SDS011;41504;53.162;6.788;2023-02-13T08:14:31;25.23;;;15.45;;
55633;SDS011;41504;53.162;6.788;2023-02-13T08:16:58;25.80;;;14.68;;
55633;SDS011;41504;53.162;6.788;2023-02-13T08:19:26;25.10;;;14.23;;
55633;SDS011;41504;53.162;6.788;2023-02-13T08:21:52;26.85;;;15.57;;
55633;SDS011;41504;53.162;6.788;2023-02-13T08:24:18;26.08;;;15.07;;
55633;SDS011;41504;53.162;6.788;2023-02-13T08:26:44;27.10;;;15.80;;
55633;SDS011;41504;53.162;6.788;2023-02-13T08:29:09;26.23;;;15.68;;
55633;SDS011;41504;53.162;6.788;2023-02-13T08:31:35;26.65;;;15.40;;
55633;SDS011;41504;53.162;6.788;2023-02-13T08:34:01;26.25;;;15.10;;
55633;SDS011;41504;53.162;6.788;2023-02-13T08:36:27;25.10;;;15.20;;
55633;SDS011;41504;53.162;6.788;2023-02-13T08:39:00;25.90;;;14.63;;
55633;SDS011;41504;53.162;6.788;2023-02-13T08:41:26;26.33;;;15.52;;
55633;SDS011;41504;53.162;6.788;2023-02-13T08:43:52;26.45;;;15.00;;
55633;SDS011;41504;53.162;6.788;2023-02-13T08:46:19;28.15;;;15.85;;
55633;SDS011;41504;53.162;6.788;2023-02-13T08:48:47;27.08;;;14.77;;
55633;SDS011;41504;53.162;6.788;2023-02-13T08:51:13;26.77;;;15.27;;
55633;SDS011;41504;53.162;6.788;2023-02-13T08:53:39;25.90;;;15.20;;
55633;SDS011;41504;53.162;6.788;2023-02-13T08:56:05;25.23;;;15.32;;
55633;SDS011;41504;53.162;6.788;2023-02-13T08:58:31;23.98;;;14.23;;
55633;SDS011;41504;53.162;6.788;2023-02-13T09:00:57;25.13;;;14.35;;
55633;SDS011;41504;53.162;6.788;2023-02-13T09:03:23;27.42;;;15.02;;
55633;SDS011;41504;53.162;6.788;2023-02-13T09:05:49;23.98;;;14.57;;
55633;SDS011;41504;53.162;6.788;2023-02-13T09:08:14;23.85;;;13.95;;
55633;SDS011;41504;53.162;6.788;2023-02-13T09:10:41;26.00;;;14.77;;
55633;SDS011;41504;53.162;6.788;2023-02-13T09:13:10;27.27;;;15.70;;
55633;SDS011;41504;53.162;6.788;2023-02-13T09:15:39;23.48;;;13.65;;
55633;SDS011;41504;53.162;6.788;2023-02-13T09:18:06;24.70;;;14.55;;
55633;SDS011;41504;53.162;6.788;2023-02-13T09:20:34;23.27;;;14.63;;
55633;SDS011;41504;53.162;6.788;2023-02-13T09:23:00;26.10;;;14.85;;
55633;SDS011;41504;53.162;6.788;2023-02-13T09:25:25;25.17;;;14.82;;
55633;SDS011;41504;53.162;6.788;2023-02-13T09:27:51;25.70;;;15.15;;
55633;SDS011;41504;53.162;6.788;2023-02-13T09:30:17;27.77;;;15.85;;
55633;SDS011;41504;53.162;6.788;2023-02-13T09:32:52;25.48;;;14.98;;
55633;SDS011;41504;53.162;6.788;2023-02-13T09:35:19;28.15;;;14.77;;
55633;SDS011;41504;53.162;6.788;2023-02-13T09:37:45;25.35;;;15.85;;
55633;SDS011;41504;53.162;6.788;2023-02-13T09:40:25;27.80;;;15.75;;
55633;SDS011;41504;53.162;6.788;2023-02-13T09:43:03;26.95;;;15.50;;
55633;SDS011;41504;53.162;6.788;2023-02-13T09:45:37;26.23;;;15.05;;
55633;SDS011;41504;53.162;6.788;2023-02-13T09:48:07;26.52;;;15.38;;
55633;SDS011;41504;53.162;6.788;2023-02-13T09:50:42;27.88;;;15.82;;
55633;SDS011;41504;53.162;6.788;2023-02-13T09:53:08;26.65;;;16.20;;
55633;SDS011;41504;53.162;6.788;2023-02-13T09:55:46;26.98;;;15.95;;
55633;SDS011;41504;53.162;6.788;2023-02-13T10:01:36;29.00;;;15.65;;
55633;SDS011;41504;53.162;6.788;2023-02-13T10:04:19;26.92;;;16.48;;
55633;SDS011;41504;53.162;6.788;2023-02-13T10:06:49;25.88;;;15.32;;
55633;SDS011;41504;53.162;6.788;2023-02-13T10:09:38;28.45;;;15.45;;
55633;SDS011;41504;53.162;6.788;2023-02-13T10:12:40;26.50;;;15.15;;
55633;SDS011;41504;53.162;6.788;2023-02-13T10:15:27;28.02;;;15.20;;
55633;SDS011;41504;53.162;6.788;2023-02-13T10:18:02;29.92;;;15.93;;
55633;SDS011;41504;53.162;6.788;2023-02-13T10:20:42;26.23;;;15.07;;
55633;SDS011;41504;53.162;6.788;2023-02-13T10:23:16;29.15;;;16.52;;
55633;SDS011;41504;53.162;6.788;2023-02-13T10:26:02;28.17;;;15.52;;
55633;SDS011;41504;53.162;6.788;2023-02-13T10:28:39;26.13;;;15.55;;
55633;SDS011;41504;53.162;6.788;2023-02-13T10:31:16;26.92;;;15.23;;
55633;SDS011;41504;53.162;6.788;2023-02-13T10:33:50;27.60;;;15.88;;
55633;SDS011;41504;53.162;6.788;2023-02-13T10:36:34;29.08;;;16.05;;
55633;SDS011;41504;53.162;6.788;2023-02-13T10:41:36;27.67;;;15.55;;
55633;SDS011;41504;53.162;6.788;2023-02-13T10:58:41;24.73;;;14.63;;
55633;SDS011;41504;53.162;6.788;2023-02-13T11:04:08;27.40;;;15.38;;
55633;SDS011;41504;53.162;6.788;2023-02-13T11:06:39;26.38;;;14.20;;
55633;SDS011;41504;53.162;6.788;2023-02-13T11:09:07;27.48;;;13.95;;
55633;SDS011;41504;53.162;6.788;2023-02-13T11:11:37;24.13;;;14.30;;
55633;SDS011;41504;53.162;6.788;2023-02-13T11:14:07;24.95;;;13.80;;
55633;SDS011;41504;53.162;6.788;2023-02-13T11:19:19;23.15;;;13.93;;
55633;SDS011;41504;53.162;6.788;2023-02-13T11:21:52;22.17;;;13.90;;
55633;SDS011;41504;53.162;6.788;2023-02-13T11:24:22;26.52;;;15.50;;
55633;SDS011;41504;53.162;6.788;2023-02-13T11:26:59;23.90;;;14.43;;
55633;SDS011;41504;53.162;6.788;2023-02-13T11:29:33;23.25;;;13.85;;
55633;SDS011;41504;53.162;6.788;2023-02-13T11:32:03;24.23;;;13.75;;
55633;SDS011;41504;53.162;6.788;2023-02-13T11:34:43;24.77;;;14.90;;
55633;SDS011;41504;53.162;6.788;2023-02-13T11:39:38;23.58;;;14.10;;
55633;SDS011;41504;53.162;6.788;2023-02-13T11:42:12;25.65;;;13.88;;
55633;SDS011;41504;53.162;6.788;2023-02-13T11:44:38;24.35;;;13.68;;
55633;SDS011;41504;53.162;6.788;2023-02-13T11:47:06;21.75;;;13.40;;
55633;SDS011;41504;53.162;6.788;2023-02-13T11:49:33;24.05;;;13.48;;
55633;SDS011;41504;53.162;6.788;2023-02-13T11:52:02;22.52;;;14.10;;
55633;SDS011;41504;53.162;6.788;2023-02-13T11:59:46;21.65;;;12.70;;
55633;SDS011;41504;53.162;6.788;2023-02-13T12:02:20;22.25;;;13.50;;
55633;SDS011;41504;53.162;6.788;2023-02-13T12:05:13;25.35;;;13.93;;
55633;SDS011;41504;53.162;6.788;2023-02-13T12:07:41;23.77;;;13.88;;
55633;SDS011;41504;53.162;6.788;2023-02-13T12:15:27;24.90;;;13.65;;
55633;SDS011;41504;53.162;6.788;2023-02-13T12:26:12;24.20;;;13.20;;
55633;SDS011;41504;53.162;6.788;2023-02-13T12:39:51;22.20;;;13.35;;
55633;SDS011;41504;53.162;6.788;2023-02-13T12:51:09;24.30;;;13.57;;
55633;SDS011;41504;53.162;6.788;2023-02-13T12:59:05;24.33;;;13.98;;
55633;SDS011;41504;53.162;6.788;2023-02-13T13:15:14;25.30;;;14.52;;
55633;SDS011;41504;53.162;6.788;2023-02-13T13:20:43;24.95;;;14.25;;
55633;SDS011;41504;53.162;6.788;2023-02-13T13:28:57;27.02;;;15.45;;
55633;SDS011;41504;53.162;6.788;2023-02-13T13:31:25;27.85;;;16.10;;
55633;SDS011;41504;53.162;6.788;2023-02-13T13:33:57;28.55;;;15.75;;
55633;SDS011;41504;53.162;6.788;2023-02-13T13:47:48;25.98;;;15.48;;
55633;SDS011;41504;53.162;6.788;2023-02-13T13:50:29;24.05;;;15.02;;
55633;SDS011;41504;53.162;6.788;2023-02-13T13:53:39;27.20;;;15.15;;
55633;SDS011;41504;53.162;6.788;2023-02-13T14:03:39;25.02;;;14.75;;
55633;SDS011;41504;53.162;6.788;2023-02-13T14:06:12;24.40;;;14.30;;
55633;SDS011;41504;53.162;6.788;2023-02-13T14:13:49;26.20;;;14.90;;
55633;SDS011;41504;53.162;6.788;2023-02-13T14:19:03;28.73;;;15.98;;
55633;SDS011;41504;53.162;6.788;2023-02-13T14:21:30;29.55;;;16.27;;
55633;SDS011;41504;53.162;6.788;2023-02-13T14:23:56;26.85;;;16.52;;
55633;SDS011;41504;53.162;6.788;2023-02-13T14:26:40;29.02;;;16.67;;
55633;SDS011;41504;53.162;6.788;2023-02-13T14:31:35;28.42;;;17.55;;
55633;SDS011;41504;53.162;6.788;2023-02-13T14:34:05;25.27;;;15.52;;
55633;SDS011;41504;53.162;6.788;2023-02-13T14:36:35;24.33;;;15.27;;
55633;SDS011;41504;53.162;6.788;2023-02-13T14:39:15;30.00;;;16.67;;
55633;SDS011;41504;53.162;6.788;2023-02-13T14:47:13;29.38;;;17.38;;
55633;SDS011;41504;53.162;6.788;2023-02-13T14:49:49;26.98;;;16.98;;
55633;SDS011;41504;53.162;6.788;2023-02-13T14:52:31;30.08;;;17.10;;
55633;SDS011;41504;53.162;6.788;2023-02-13T14:55:06;25.85;;;17.08;;
55633;SDS011;41504;53.162;6.788;2023-02-13T14:57:46;30.42;;;18.52;;
55633;SDS011;41504;53.162;6.788;2023-02-13T15:00:20;28.50;;;16.45;;
55633;SDS011;41504;53.162;6.788;2023-02-13T15:02:57;28.55;;;17.10;;
55633;SDS011;41504;53.162;6.788;2023-02-13T15:05:32;33.13;;;18.45;;
55633;SDS011;41504;53.162;6.788;2023-02-13T15:08:18;29.95;;;17.10;;
55633;SDS011;41504;53.162;6.788;2023-02-13T15:10:58;32.45;;;18.40;;
55633;SDS011;41504;53.162;6.788;2023-02-13T15:13:31;29.90;;;18.83;;
55633;SDS011;41504;53.162;6.788;2023-02-13T15:16:09;27.77;;;17.60;;
55633;SDS011;41504;53.162;6.788;2023-02-13T15:18:43;28.70;;;17.58;;
55633;SDS011;41504;53.162;6.788;2023-02-13T15:21:14;27.65;;;17.15;;
55633;SDS011;41504;53.162;6.788;2023-02-13T15:23:41;27.55;;;17.05;;
55633;SDS011;41504;53.162;6.788;2023-02-13T15:26:08;29.13;;;17.52;;
55633;SDS011;41504;53.162;6.788;2023-02-13T15:28:55;29.67;;;18.30;;
55633;SDS011;41504;53.162;6.788;2023-02-13T15:31:24;29.17;;;18.23;;
55633;SDS011;41504;53.162;6.788;2023-02-13T15:34:02;29.75;;;18.33;;
55633;SDS011;41504;53.162;6.788;2023-02-13T15:36:38;26.77;;;17.10;;
55633;SDS011;41504;53.162;6.788;2023-02-13T15:39:05;27.63;;;17.60;;
55633;SDS011;41504;53.162;6.788;2023-02-13T15:41:37;25.55;;;16.98;;
55633;SDS011;41504;53.162;6.788;2023-02-13T15:44:12;26.98;;;17.27;;
55633;SDS011;41504;53.162;6.788;2023-02-13T15:46:48;28.20;;;18.48;;
55633;SDS011;41504;53.162;6.788;2023-02-13T15:51:48;28.88;;;17.67;;
55633;SDS011;41504;53.162;6.788;2023-02-13T15:54:28;29.05;;;18.33;;
55633;SDS011;41504;53.162;6.788;2023-02-13T15:56:59;25.35;;;17.00;;
55633;SDS011;41504;53.162;6.788;2023-02-13T15:59:32;27.88;;;17.65;;
55633;SDS011;41504;53.162;6.788;2023-02-13T16:02:01;30.73;;;18.10;;
55633;SDS011;41504;53.162;6.788;2023-02-13T16:04:29;28.85;;;18.88;;
55633;SDS011;41504;53.162;6.788;2023-02-13T16:06:56;29.58;;;19.17;;
55633;SDS011;41504;53.162;6.788;2023-02-13T16:09:30;28.75;;;18.25;;
55633;SDS011;41504;53.162;6.788;2023-02-13T16:12:18;30.48;;;18.55;;
55633;SDS011;41504;53.162;6.788;2023-02-13T16:14:51;28.25;;;18.38;;
55633;SDS011;41504;53.162;6.788;2023-02-13T16:17:27;26.48;;;17.20;;
55633;SDS011;41504;53.162;6.788;2023-02-13T16:27:50;29.80;;;18.00;;
55633;SDS011;41504;53.162;6.788;2023-02-13T16:35:39;30.98;;;17.98;;
55633;SDS011;41504;53.162;6.788;2023-02-13T16:43:50;31.35;;;20.23;;
55633;SDS011;41504;53.162;6.788;2023-02-13T16:54:22;32.15;;;19.30;;
55633;SDS011;41504;53.162;6.788;2023-02-13T17:04:52;29.88;;;18.75;;
55633;SDS011;41504;53.162;6.788;2023-02-13T17:07:19;30.60;;;17.92;;
55633;SDS011;41504;53.162;6.788;2023-02-13T17:09:57;29.85;;;19.73;;
55633;SDS011;41504;53.162;6.788;2023-02-13T17:12:26;31.45;;;19.02;;
55633;SDS011;41504;53.162;6.788;2023-02-13T17:14:53;31.00;;;19.05;;
55633;SDS011;41504;53.162;6.788;2023-02-13T17:17:44;28.85;;;19.05;;
55633;SDS011;41504;53.162;6.788;2023-02-13T17:20:35;27.45;;;18.40;;
55633;SDS011;41504;53.162;6.788;2023-02-13T17:23:17;30.02;;;18.85;;
55633;SDS011;41504;53.162;6.788;2023-02-13T17:29:13;33.30;;;20.05;;
55633;SDS011;41504;53.162;6.788;2023-02-13T17:31:39;30.08;;;18.95;;
55633;SDS011;41504;53.162;6.788;2023-02-13T17:34:04;29.42;;;18.73;;
55633;SDS011;41504;53.162;6.788;2023-02-13T17:36:30;31.52;;;18.92;;
55633;SDS011;41504;53.162;6.788;2023-02-13T17:38:57;32.05;;;18.85;;
55633;SDS011;41504;53.162;6.788;2023-02-13T17:41:25;32.05;;;19.05;;
55633;SDS011;41504;53.162;6.788;2023-02-13T17:43:51;29.98;;;19.58;;
55633;SDS011;41504;53.162;6.788;2023-02-13T17:46:20;29.70;;;18.58;;
55633;SDS011;41504;53.162;6.788;2023-02-13T17:48:52;30.38;;;19.20;;
55633;SDS011;41504;53.162;6.788;2023-02-13T17:51:21;33.05;;;19.13;;
55633;SDS011;41504;53.162;6.788;2023-02-13T17:53:47;31.13;;;19.23;;